sensor_id;sensor_type;location;lat;lon;timestamp;P1;durP1;ratioP1;P2;durP2;ratioP2
37203;SDS011;23098;48.054;10.636;2023-11-19T00:00:27;1.25;;;0.70;;
37203;SDS011;23098;48.054;10.636;2023-11-19T00:02:53;1.33;;;0.93;;
37203;SDS011;23098;48.054;10.636;2023-11-19T00:05:19;0.70;;;0.60;;
37203;SDS011;23098;48.054;10.636;2023-11-19T00:07:44;0.55;;;0.50;;
37203;SDS011;23098;48.054;10.636;2023-11-19T00:10:10;1.20;;;0.80;;
37203;SDS011;23098;48.054;10.636;2023-11-19T00:12:37;0.90;;;0.70;;
37203;SDS011;23098;48.054;10.636;2023-11-19T00:15:04;1.05;;;0.40;;
37203;SDS011;23098;48.054;10.636;2023-11-19T00:17:31;0.60;;;0.50;;
37203;SDS011;23098;48.054;10.636;2023-11-19T00:19:57;0.70;;;0.47;;
37203;SDS011;23098;48.054;10.636;2023-11-19T00:22:22;0.88;;;0.73;;
37203;SDS011;23098;48.054;10.636;2023-11-19T00:24:48;0.50;;;0.50;;
37203;SDS011;23098;48.054;10.636;2023-11-19T00:27:13;0.70;;;0.60;;
37203;SDS011;23098;48.054;10.636;2023-11-19T00:29:39;1.20;;;0.82;;
37203;SDS011;23098;48.054;10.636;2023-11-19T00:32:05;1.00;;;0.70;;
37203;SDS011;23098;48.054;10.636;2023-11-19T00:34:32;0.55;;;0.50;;
37203;SDS011;23098;48.054;10.636;2023-11-19T00:36:58;0.77;;;0.60;;
37203;SDS011;23098;48.054;10.636;2023-11-19T00:39:23;0.57;;;0.45;;
37203;SDS011;23098;48.054;10.636;2023-11-19T00:41:48;0.98;;;0.60;;
37203;SDS011;23098;48.054;10.636;2023-11-19T00:44:14;0.82;;;0.50;;
37203;SDS011;23098;48.054;10.636;2023-11-19T00:46:40;0.70;;;0.70;;
37203;SDS011;23098;48.054;10.636;2023-11-19T00:49:05;0.47;;;0.47;;
37203;SDS011;23098;48.054;10.636;2023-11-19T00:51:31;1.17;;;0.73;;
37203;SDS011;23098;48.054;10.636;2023-11-19T00:53:57;1.30;;;0.70;;
37203;SDS011;23098;48.054;10.636;2023-11-19T00:56:24;0.77;;;0.75;;
37203;SDS011;23098;48.054;10.636;2023-11-19T00:58:49;1.25;;;0.57;;
37203;SDS011;23098;48.054;10.636;2023-11-19T01:01:15;1.10;;;0.50;;
37203;SDS011;23098;48.054;10.636;2023-11-19T01:03:40;0.85;;;0.60;;
37203;SDS011;23098;48.054;10.636;2023-11-19T01:06:06;0.80;;;0.68;;
37203;SDS011;23098;48.054;10.636;2023-11-19T01:08:33;1.15;;;1.05;;
37203;SDS011;23098;48.054;10.636;2023-11-19T01:11:00;1.17;;;0.77;;
37203;SDS011;23098;48.054;10.636;2023-11-19T01:13:27;1.70;;;0.90;;
37203;SDS011;23098;48.054;10.636;2023-11-19T01:15:52;1.63;;;1.10;;
37203;SDS011;23098;48.054;10.636;2023-11-19T01:18:20;1.02;;;0.88;;
37203;SDS011;23098;48.054;10.636;2023-11-19T01:20:45;1.17;;;1.02;;
37203;SDS011;23098;48.054;10.636;2023-11-19T01:23:11;0.70;;;0.60;;
37203;SDS011;23098;48.054;10.636;2023-11-19T01:25:37;1.83;;;1.02;;
37203;SDS011;23098;48.054;10.636;2023-11-19T01:28:03;0.85;;;0.80;;
37203;SDS011;23098;48.054;10.636;2023-11-19T01:30:29;1.48;;;1.00;;
37203;SDS011;23098;48.054;10.636;2023-11-19T01:32:55;0.85;;;0.85;;
37203;SDS011;23098;48.054;10.636;2023-11-19T01:35:21;1.25;;;1.00;;
37203;SDS011;23098;48.054;10.636;2023-11-19T01:37:48;0.68;;;0.68;;
37203;SDS011;23098;48.054;10.636;2023-11-19T01:40:13;1.13;;;1.00;;
37203;SDS011;23098;48.054;10.636;2023-11-19T01:42:40;0.98;;;0.85;;
37203;SDS011;23098;48.054;10.636;2023-11-19T01:45:06;1.40;;;1.00;;
37203;SDS011;23098;48.054;10.636;2023-11-19T01:47:33;1.42;;;1.00;;
37203;SDS011;23098;48.054;10.636;2023-11-19T01:50:00;1.00;;;0.90;;
37203;SDS011;23098;48.054;10.636;2023-11-19T01:52:26;1.30;;;1.20;;
37203;SDS011;23098;48.054;10.636;2023-11-19T01:54:52;0.75;;;0.60;;
37203;SDS011;23098;48.054;10.636;2023-11-19T01:57:19;1.20;;;0.77;;
37203;SDS011;23098;48.054;10.636;2023-11-19T01:59:47;1.05;;;0.88;;
37203;SDS011;23098;48.054;10.636;2023-11-19T02:02:15;0.85;;;0.75;;
37203;SDS011;23098;48.054;10.636;2023-11-19T02:04:45;0.60;;;0.60;;
37203;SDS011;23098;48.054;10.636;2023-11-19T02:07:15;1.20;;;0.80;;
37203;SDS011;23098;48.054;10.636;2023-11-19T02:09:42;0.50;;;0.50;;
37203;SDS011;23098;48.054;10.636;2023-11-19T02:12:08;0.30;;;0.30;;
37203;SDS011;23098;48.054;10.636;2023-11-19T02:14:36;1.75;;;0.70;;
37203;SDS011;23098;48.054;10.636;2023-11-19T02:17:02;0.57;;;0.57;;
37203;SDS011;23098;48.054;10.636;2023-11-19T02:19:29;0.73;;;0.40;;
37203;SDS011;23098;48.054;10.636;2023-11-19T02:21:54;0.50;;;0.50;;
37203;SDS011;23098;48.054;10.636;2023-11-19T02:24:21;0.20;;;0.20;;
37203;SDS011;23098;48.054;10.636;2023-11-19T02:29:27;0.93;;;0.65;;
37203;SDS011;23098;48.054;10.636;2023-11-19T02:31:52;0.63;;;0.50;;
37203;SDS011;23098;48.054;10.636;2023-11-19T02:34:21;0.90;;;0.60;;
37203;SDS011;23098;48.054;10.636;2023-11-19T02:36:47;0.38;;;0.38;;
37203;SDS011;23098;48.054;10.636;2023-11-19T02:39:13;0.30;;;0.30;;
37203;SDS011;23098;48.054;10.636;2023-11-19T02:41:38;0.45;;;0.45;;
37203;SDS011;23098;48.054;10.636;2023-11-19T02:44:05;0.40;;;0.40;;
37203;SDS011;23098;48.054;10.636;2023-11-19T02:46:31;0.70;;;0.70;;
37203;SDS011;23098;48.054;10.636;2023-11-19T02:48:57;0.50;;;0.50;;
37203;SDS011;23098;48.054;10.636;2023-11-19T02:51:23;0.60;;;0.60;;
37203;SDS011;23098;48.054;10.636;2023-11-19T02:53:48;0.47;;;0.43;;
37203;SDS011;23098;48.054;10.636;2023-11-19T02:56:14;1.85;;;0.52;;
37203;SDS011;23098;48.054;10.636;2023-11-19T02:58:50;0.85;;;0.80;;
37203;SDS011;23098;48.054;10.636;2023-11-19T03:01:21;0.85;;;0.80;;
37203;SDS011;23098;48.054;10.636;2023-11-19T03:03:56;0.98;;;0.70;;
37203;SDS011;23098;48.054;10.636;2023-11-19T03:06:23;0.73;;;0.70;;
37203;SDS011;23098;48.054;10.636;2023-11-19T03:08:49;0.82;;;0.55;;
37203;SDS011;23098;48.054;10.636;2023-11-19T03:11:14;0.52;;;0.47;;
37203;SDS011;23098;48.054;10.636;2023-11-19T03:13:40;0.80;;;0.60;;
37203;SDS011;23098;48.054;10.636;2023-11-19T03:16:06;0.95;;;0.70;;
37203;SDS011;23098;48.054;10.636;2023-11-19T03:18:32;0.50;;;0.50;;
37203;SDS011;23098;48.054;10.636;2023-11-19T03:20:58;0.60;;;0.60;;
37203;SDS011;23098;48.054;10.636;2023-11-19T03:23:23;0.85;;;0.73;;
37203;SDS011;23098;48.054;10.636;2023-11-19T03:25:50;1.27;;;0.60;;
37203;SDS011;23098;48.054;10.636;2023-11-19T03:28:15;1.23;;;0.80;;
37203;SDS011;23098;48.054;10.636;2023-11-19T03:30:42;0.80;;;0.70;;
37203;SDS011;23098;48.054;10.636;2023-11-19T03:33:07;0.65;;;0.57;;
37203;SDS011;23098;48.054;10.636;2023-11-19T03:35:33;0.93;;;0.50;;
37203;SDS011;23098;48.054;10.636;2023-11-19T03:37:58;0.50;;;0.50;;
37203;SDS011;23098;48.054;10.636;2023-11-19T03:40:24;0.70;;;0.60;;
37203;SDS011;23098;48.054;10.636;2023-11-19T03:42:50;0.90;;;0.60;;
37203;SDS011;23098;48.054;10.636;2023-11-19T03:45:16;1.63;;;0.60;;
37203;SDS011;23098;48.054;10.636;2023-11-19T03:47:41;0.77;;;0.60;;
37203;SDS011;23098;48.054;10.636;2023-11-19T03:50:07;0.70;;;0.60;;
37203;SDS011;23098;48.054;10.636;2023-11-19T03:52:35;1.05;;;0.70;;
37203;SDS011;23098;48.054;10.636;2023-11-19T03:55:01;1.02;;;0.80;;
37203;SDS011;23098;48.054;10.636;2023-11-19T03:57:29;1.60;;;0.63;;
37203;SDS011;23098;48.054;10.636;2023-11-19T03:59:55;1.65;;;0.80;;
37203;SDS011;23098;48.054;10.636;2023-11-19T04:02:20;2.35;;;1.10;;
37203;SDS011;23098;48.054;10.636;2023-11-19T04:04:46;0.50;;;0.50;;
37203;SDS011;23098;48.054;10.636;2023-11-19T04:07:12;1.40;;;0.73;;
37203;SDS011;23098;48.054;10.636;2023-11-19T04:09:37;0.82;;;0.63;;
37203;SDS011;23098;48.054;10.636;2023-11-19T04:12:03;0.93;;;0.60;;
37203;SDS011;23098;48.054;10.636;2023-11-19T04:14:29;0.93;;;0.70;;
37203;SDS011;23098;48.054;10.636;2023-11-19T04:16:54;0.63;;;0.63;;
37203;SDS011;23098;48.054;10.636;2023-11-19T04:19:20;0.60;;;0.50;;
37203;SDS011;23098;48.054;10.636;2023-11-19T04:21:45;0.68;;;0.68;;
37203;SDS011;23098;48.054;10.636;2023-11-19T04:24:11;1.23;;;0.70;;
37203;SDS011;23098;48.054;10.636;2023-11-19T04:26:41;1.33;;;0.75;;
37203;SDS011;23098;48.054;10.636;2023-11-19T04:29:13;0.90;;;0.63;;
37203;SDS011;23098;48.054;10.636;2023-11-19T04:31:39;0.55;;;0.47;;
37203;SDS011;23098;48.054;10.636;2023-11-19T04:34:13;3.80;;;0.70;;
37203;SDS011;23098;48.054;10.636;2023-11-19T04:36:38;0.90;;;0.80;;
37203;SDS011;23098;48.054;10.636;2023-11-19T04:39:04;0.57;;;0.50;;
37203;SDS011;23098;48.054;10.636;2023-11-19T04:41:34;0.73;;;0.52;;
37203;SDS011;23098;48.054;10.636;2023-11-19T04:44:00;0.80;;;0.70;;
37203;SDS011;23098;48.054;10.636;2023-11-19T04:46:26;0.40;;;0.32;;
37203;SDS011;23098;48.054;10.636;2023-11-19T04:48:51;2.58;;;0.77;;
37203;SDS011;23098;48.054;10.636;2023-11-19T04:51:17;0.40;;;0.40;;
37203;SDS011;23098;48.054;10.636;2023-11-19T04:53:42;0.75;;;0.60;;
37203;SDS011;23098;48.054;10.636;2023-11-19T04:56:08;0.90;;;0.60;;
37203;SDS011;23098;48.054;10.636;2023-11-19T04:58:35;0.43;;;0.43;;
37203;SDS011;23098;48.054;10.636;2023-11-19T05:01:01;0.43;;;0.40;;
37203;SDS011;23098;48.054;10.636;2023-11-19T05:03:26;0.60;;;0.50;;
37203;SDS011;23098;48.054;10.636;2023-11-19T05:05:52;0.88;;;0.63;;
37203;SDS011;23098;48.054;10.636;2023-11-19T05:08:18;1.23;;;0.68;;
37203;SDS011;23098;48.054;10.636;2023-11-19T05:10:44;0.60;;;0.50;;
37203;SDS011;23098;48.054;10.636;2023-11-19T05:13:09;0.73;;;0.50;;
37203;SDS011;23098;48.054;10.636;2023-11-19T05:15:35;0.60;;;0.52;;
37203;SDS011;23098;48.054;10.636;2023-11-19T05:18:00;0.30;;;0.30;;
37203;SDS011;23098;48.054;10.636;2023-11-19T05:20:26;2.25;;;0.50;;
37203;SDS011;23098;48.054;10.636;2023-11-19T05:22:51;0.28;;;0.25;;
37203;SDS011;23098;48.054;10.636;2023-11-19T05:25:18;0.40;;;0.40;;
37203;SDS011;23098;48.054;10.636;2023-11-19T05:27:45;0.30;;;0.30;;
37203;SDS011;23098;48.054;10.636;2023-11-19T05:30:10;0.43;;;0.40;;
37203;SDS011;23098;48.054;10.636;2023-11-19T05:32:36;0.30;;;0.30;;
37203;SDS011;23098;48.054;10.636;2023-11-19T05:35:02;1.05;;;0.70;;
37203;SDS011;23098;48.054;10.636;2023-11-19T05:37:28;0.55;;;0.35;;
37203;SDS011;23098;48.054;10.636;2023-11-19T05:39:53;0.50;;;0.50;;
37203;SDS011;23098;48.054;10.636;2023-11-19T05:42:19;0.40;;;0.40;;
37203;SDS011;23098;48.054;10.636;2023-11-19T05:44:45;0.80;;;0.45;;
37203;SDS011;23098;48.054;10.636;2023-11-19T05:47:11;0.40;;;0.40;;
37203;SDS011;23098;48.054;10.636;2023-11-19T05:49:37;0.60;;;0.60;;
37203;SDS011;23098;48.054;10.636;2023-11-19T05:52:02;0.60;;;0.50;;
37203;SDS011;23098;48.054;10.636;2023-11-19T05:54:28;0.30;;;0.30;;
37203;SDS011;23098;48.054;10.636;2023-11-19T05:56:54;0.30;;;0.30;;
37203;SDS011;23098;48.054;10.636;2023-11-19T05:59:20;0.30;;;0.30;;
37203;SDS011;23098;48.054;10.636;2023-11-19T06:01:47;0.80;;;0.30;;
37203;SDS011;23098;48.054;10.636;2023-11-19T06:04:13;0.38;;;0.38;;
37203;SDS011;23098;48.054;10.636;2023-11-19T06:06:39;0.15;;;0.15;;
37203;SDS011;23098;48.054;10.636;2023-11-19T06:09:05;0.50;;;0.32;;
37203;SDS011;23098;48.054;10.636;2023-11-19T06:11:31;0.50;;;0.50;;
37203;SDS011;23098;48.054;10.636;2023-11-19T06:13:58;0.50;;;0.45;;
37203;SDS011;23098;48.054;10.636;2023-11-19T06:16:24;0.45;;;0.45;;
37203;SDS011;23098;48.054;10.636;2023-11-19T06:18:50;0.30;;;0.20;;
37203;SDS011;23098;48.054;10.636;2023-11-19T06:21:15;0.22;;;0.22;;
37203;SDS011;23098;48.054;10.636;2023-11-19T06:23:41;0.47;;;0.30;;
37203;SDS011;23098;48.054;10.636;2023-11-19T06:26:07;0.20;;;0.20;;
37203;SDS011;23098;48.054;10.636;2023-11-19T06:28:33;0.30;;;0.20;;
37203;SDS011;23098;48.054;10.636;2023-11-19T06:30:59;0.60;;;0.30;;
37203;SDS011;23098;48.054;10.636;2023-11-19T06:33:24;0.13;;;0.10;;
37203;SDS011;23098;48.054;10.636;2023-11-19T06:35:51;0.17;;;0.17;;
37203;SDS011;23098;48.054;10.636;2023-11-19T06:38:17;0.30;;;0.30;;
37203;SDS011;23098;48.054;10.636;2023-11-19T06:40:43;0.50;;;0.30;;
37203;SDS011;23098;48.054;10.636;2023-11-19T06:43:09;0.40;;;0.30;;
37203;SDS011;23098;48.054;10.636;2023-11-19T06:45:34;0.20;;;0.20;;
37203;SDS011;23098;48.054;10.636;2023-11-19T06:48:01;0.82;;;0.20;;
37203;SDS011;23098;48.054;10.636;2023-11-19T06:50:29;0.30;;;0.30;;
37203;SDS011;23098;48.054;10.636;2023-11-19T06:52:55;0.40;;;0.35;;
37203;SDS011;23098;48.054;10.636;2023-11-19T06:55:20;0.15;;;0.15;;
37203;SDS011;23098;48.054;10.636;2023-11-19T06:57:46;0.50;;;0.40;;
37203;SDS011;23098;48.054;10.636;2023-11-19T07:00:20;0.60;;;0.50;;
37203;SDS011;23098;48.054;10.636;2023-11-19T07:02:46;0.30;;;0.30;;
37203;SDS011;23098;48.054;10.636;2023-11-19T07:05:12;0.40;;;0.40;;
37203;SDS011;23098;48.054;10.636;2023-11-19T07:07:38;0.70;;;0.40;;
37203;SDS011;23098;48.054;10.636;2023-11-19T07:10:05;0.32;;;0.28;;
37203;SDS011;23098;48.054;10.636;2023-11-19T07:12:34;0.50;;;0.50;;
37203;SDS011;23098;48.054;10.636;2023-11-19T07:15:00;0.85;;;0.60;;
37203;SDS011;23098;48.054;10.636;2023-11-19T07:17:28;0.98;;;0.70;;
37203;SDS011;23098;48.054;10.636;2023-11-19T07:19:54;0.57;;;0.57;;
37203;SDS011;23098;48.054;10.636;2023-11-19T07:22:20;0.85;;;0.60;;
37203;SDS011;23098;48.054;10.636;2023-11-19T07:24:45;0.95;;;0.50;;
37203;SDS011;23098;48.054;10.636;2023-11-19T07:27:11;0.47;;;0.43;;
37203;SDS011;23098;48.054;10.636;2023-11-19T07:29:37;0.85;;;0.57;;
37203;SDS011;23098;48.054;10.636;2023-11-19T07:32:03;0.82;;;0.68;;
37203;SDS011;23098;48.054;10.636;2023-11-19T07:34:30;0.73;;;0.70;;
37203;SDS011;23098;48.054;10.636;2023-11-19T07:36:55;0.60;;;0.55;;
37203;SDS011;23098;48.054;10.636;2023-11-19T07:39:27;1.02;;;0.60;;
37203;SDS011;23098;48.054;10.636;2023-11-19T07:41:53;1.00;;;0.68;;
37203;SDS011;23098;48.054;10.636;2023-11-19T07:44:19;0.55;;;0.55;;
37203;SDS011;23098;48.054;10.636;2023-11-19T07:46:46;0.50;;;0.50;;
37203;SDS011;23098;48.054;10.636;2023-11-19T07:49:13;0.47;;;0.47;;
37203;SDS011;23098;48.054;10.636;2023-11-19T07:51:38;1.05;;;0.93;;
37203;SDS011;23098;48.054;10.636;2023-11-19T07:54:04;0.80;;;0.80;;
37203;SDS011;23098;48.054;10.636;2023-11-19T07:56:31;0.70;;;0.70;;
37203;SDS011;23098;48.054;10.636;2023-11-19T07:58:59;0.50;;;0.50;;
37203;SDS011;23098;48.054;10.636;2023-11-19T08:01:24;0.77;;;0.77;;
37203;SDS011;23098;48.054;10.636;2023-11-19T08:03:50;1.33;;;0.80;;
37203;SDS011;23098;48.054;10.636;2023-11-19T08:06:16;0.80;;;0.80;;
37203;SDS011;23098;48.054;10.636;2023-11-19T08:08:41;4.05;;;1.10;;
37203;SDS011;23098;48.054;10.636;2023-11-19T08:11:08;1.63;;;0.70;;
37203;SDS011;23098;48.054;10.636;2023-11-19T08:13:34;1.02;;;0.73;;
37203;SDS011;23098;48.054;10.636;2023-11-19T08:16:00;0.63;;;0.60;;
37203;SDS011;23098;48.054;10.636;2023-11-19T08:18:26;0.73;;;0.60;;
37203;SDS011;23098;48.054;10.636;2023-11-19T08:20:51;0.70;;;0.60;;
37203;SDS011;23098;48.054;10.636;2023-11-19T08:23:18;1.17;;;0.70;;
37203;SDS011;23098;48.054;10.636;2023-11-19T08:25:44;1.13;;;0.70;;
37203;SDS011;23098;48.054;10.636;2023-11-19T08:28:10;0.93;;;0.85;;
37203;SDS011;23098;48.054;10.636;2023-11-19T08:30:35;0.63;;;0.63;;
37203;SDS011;23098;48.054;10.636;2023-11-19T08:33:01;0.88;;;0.60;;
37203;SDS011;23098;48.054;10.636;2023-11-19T08:35:30;1.00;;;0.90;;
37203;SDS011;23098;48.054;10.636;2023-11-19T08:37:56;0.70;;;0.70;;
37203;SDS011;23098;48.054;10.636;2023-11-19T08:40:22;0.60;;;0.60;;
37203;SDS011;23098;48.054;10.636;2023-11-19T08:42:48;1.58;;;0.63;;
37203;SDS011;23098;48.054;10.636;2023-11-19T08:45:13;0.68;;;0.68;;
37203;SDS011;23098;48.054;10.636;2023-11-19T08:47:40;2.38;;;0.88;;
37203;SDS011;23098;48.054;10.636;2023-11-19T08:50:06;0.68;;;0.68;;
37203;SDS011;23098;48.054;10.636;2023-11-19T08:52:33;1.45;;;0.60;;
37203;SDS011;23098;48.054;10.636;2023-11-19T08:54:59;0.82;;;0.82;;
37203;SDS011;23098;48.054;10.636;2023-11-19T08:57:25;2.08;;;1.10;;
37203;SDS011;23098;48.054;10.636;2023-11-19T08:59:51;1.85;;;0.93;;
37203;SDS011;23098;48.054;10.636;2023-11-19T09:02:17;1.20;;;1.10;;
37203;SDS011;23098;48.054;10.636;2023-11-19T09:04:43;1.10;;;0.90;;
37203;SDS011;23098;48.054;10.636;2023-11-19T09:07:09;0.70;;;0.65;;
37203;SDS011;23098;48.054;10.636;2023-11-19T09:09:35;1.10;;;0.68;;
37203;SDS011;23098;48.054;10.636;2023-11-19T09:12:01;0.82;;;0.70;;
37203;SDS011;23098;48.054;10.636;2023-11-19T09:14:28;1.17;;;0.77;;
37203;SDS011;23098;48.054;10.636;2023-11-19T09:16:55;1.55;;;1.17;;
37203;SDS011;23098;48.054;10.636;2023-11-19T09:19:24;1.60;;;1.02;;
37203;SDS011;23098;48.054;10.636;2023-11-19T09:21:53;3.10;;;1.90;;
37203;SDS011;23098;48.054;10.636;2023-11-19T09:24:34;0.60;;;0.60;;
37203;SDS011;23098;48.054;10.636;2023-11-19T09:26:59;1.02;;;0.60;;
37203;SDS011;23098;48.054;10.636;2023-11-19T09:29:25;0.60;;;0.60;;
37203;SDS011;23098;48.054;10.636;2023-11-19T09:31:51;0.80;;;0.52;;
37203;SDS011;23098;48.054;10.636;2023-11-19T09:34:16;1.63;;;0.70;;
37203;SDS011;23098;48.054;10.636;2023-11-19T09:36:42;0.90;;;0.68;;
37203;SDS011;23098;48.054;10.636;2023-11-19T09:39:27;2.67;;;0.65;;
37203;SDS011;23098;48.054;10.636;2023-11-19T09:41:53;1.17;;;1.08;;
37203;SDS011;23098;48.054;10.636;2023-11-19T09:44:18;0.70;;;0.52;;
37203;SDS011;23098;48.054;10.636;2023-11-19T09:46:44;1.30;;;0.70;;
37203;SDS011;23098;48.054;10.636;2023-11-19T09:49:11;0.77;;;0.60;;
37203;SDS011;23098;48.054;10.636;2023-11-19T09:51:38;0.60;;;0.60;;
37203;SDS011;23098;48.054;10.636;2023-11-19T09:54:03;0.70;;;0.63;;
37203;SDS011;23098;48.054;10.636;2023-11-19T09:56:29;0.47;;;0.40;;
37203;SDS011;23098;48.054;10.636;2023-11-19T09:58:55;0.40;;;0.40;;
37203;SDS011;23098;48.054;10.636;2023-11-19T10:01:21;0.70;;;0.55;;
37203;SDS011;23098;48.054;10.636;2023-11-19T10:03:47;0.70;;;0.50;;
37203;SDS011;23098;48.054;10.636;2023-11-19T10:06:15;0.75;;;0.50;;
37203;SDS011;23098;48.054;10.636;2023-11-19T10:08:41;0.38;;;0.30;;
37203;SDS011;23098;48.054;10.636;2023-11-19T10:11:07;0.38;;;0.38;;
37203;SDS011;23098;48.054;10.636;2023-11-19T10:13:35;0.47;;;0.47;;
37203;SDS011;23098;48.054;10.636;2023-11-19T10:16:07;0.30;;;0.30;;
37203;SDS011;23098;48.054;10.636;2023-11-19T10:18:48;0.40;;;0.30;;
37203;SDS011;23098;48.054;10.636;2023-11-19T10:21:18;0.50;;;0.40;;
37203;SDS011;23098;48.054;10.636;2023-11-19T10:23:50;0.30;;;0.30;;
37203;SDS011;23098;48.054;10.636;2023-11-19T10:26:17;0.50;;;0.50;;
37203;SDS011;23098;48.054;10.636;2023-11-19T10:28:44;1.20;;;0.52;;
37203;SDS011;23098;48.054;10.636;2023-11-19T10:31:15;0.38;;;0.38;;
37203;SDS011;23098;48.054;10.636;2023-11-19T10:33:41;0.30;;;0.30;;
37203;SDS011;23098;48.054;10.636;2023-11-19T10:36:10;0.30;;;0.30;;
37203;SDS011;23098;48.054;10.636;2023-11-19T10:38:39;0.30;;;0.30;;
37203;SDS011;23098;48.054;10.636;2023-11-19T10:41:06;0.50;;;0.30;;
37203;SDS011;23098;48.054;10.636;2023-11-19T10:43:42;0.30;;;0.30;;
37203;SDS011;23098;48.054;10.636;2023-11-19T10:46:13;0.40;;;0.30;;
37203;SDS011;23098;48.054;10.636;2023-11-19T10:48:39;0.50;;;0.32;;
37203;SDS011;23098;48.054;10.636;2023-11-19T10:51:05;0.22;;;0.20;;
37203;SDS011;23098;48.054;10.636;2023-11-19T10:53:33;0.10;;;0.10;;
37203;SDS011;23098;48.054;10.636;2023-11-19T10:56:06;0.93;;;0.30;;
37203;SDS011;23098;48.054;10.636;2023-11-19T10:58:35;0.38;;;0.32;;
37203;SDS011;23098;48.054;10.636;2023-11-19T11:01:07;0.43;;;0.40;;
37203;SDS011;23098;48.054;10.636;2023-11-19T11:03:41;0.40;;;0.40;;
37203;SDS011;23098;48.054;10.636;2023-11-19T11:06:08;0.40;;;0.40;;
37203;SDS011;23098;48.054;10.636;2023-11-19T11:08:36;0.60;;;0.40;;
37203;SDS011;23098;48.054;10.636;2023-11-19T11:11:02;0.40;;;0.30;;
37203;SDS011;23098;48.054;10.636;2023-11-19T11:13:29;0.30;;;0.30;;
37203;SDS011;23098;48.054;10.636;2023-11-19T11:15:57;0.10;;;0.10;;
37203;SDS011;23098;48.054;10.636;2023-11-19T11:18:23;0.35;;;0.30;;
37203;SDS011;23098;48.054;10.636;2023-11-19T11:20:52;0.40;;;0.40;;
37203;SDS011;23098;48.054;10.636;2023-11-19T11:23:48;0.57;;;0.40;;
37203;SDS011;23098;48.054;10.636;2023-11-19T11:29:26;0.17;;;0.10;;
37203;SDS011;23098;48.054;10.636;2023-11-19T11:32:17;0.65;;;0.40;;
37203;SDS011;23098;48.054;10.636;2023-11-19T11:35:24;0.25;;;0.20;;
37203;SDS011;23098;48.054;10.636;2023-11-19T11:38:08;0.57;;;0.30;;
37203;SDS011;23098;48.054;10.636;2023-11-19T11:40:34;0.32;;;0.30;;
37203;SDS011;23098;48.054;10.636;2023-11-19T11:43:01;0.40;;;0.30;;
37203;SDS011;23098;48.054;10.636;2023-11-19T11:45:36;0.38;;;0.30;;
37203;SDS011;23098;48.054;10.636;2023-11-19T11:48:08;0.15;;;0.15;;
37203;SDS011;23098;48.054;10.636;2023-11-19T11:50:47;0.63;;;0.40;;
37203;SDS011;23098;48.054;10.636;2023-11-19T11:53:18;1.85;;;0.40;;
37203;SDS011;23098;48.054;10.636;2023-11-19T11:58:13;1.45;;;0.40;;
37203;SDS011;23098;48.054;10.636;2023-11-19T12:00:42;0.30;;;0.30;;
37203;SDS011;23098;48.054;10.636;2023-11-19T12:03:08;0.40;;;0.40;;
37203;SDS011;23098;48.054;10.636;2023-11-19T12:05:43;0.40;;;0.40;;
37203;SDS011;23098;48.054;10.636;2023-11-19T12:08:10;0.20;;;0.20;;
37203;SDS011;23098;48.054;10.636;2023-11-19T12:10:50;1.40;;;0.57;;
37203;SDS011;23098;48.054;10.636;2023-11-19T12:13:17;0.63;;;0.30;;
37203;SDS011;23098;48.054;10.636;2023-11-19T12:18:28;1.90;;;0.55;;
37203;SDS011;23098;48.054;10.636;2023-11-19T12:20:59;0.50;;;0.47;;
37203;SDS011;23098;48.054;10.636;2023-11-19T12:23:29;0.50;;;0.38;;
37203;SDS011;23098;48.054;10.636;2023-11-19T12:26:09;0.40;;;0.40;;
37203;SDS011;23098;48.054;10.636;2023-11-19T12:28:58;0.68;;;0.40;;
37203;SDS011;23098;48.054;10.636;2023-11-19T12:31:25;0.50;;;0.50;;
37203;SDS011;23098;48.054;10.636;2023-11-19T12:33:51;1.25;;;0.50;;
37203;SDS011;23098;48.054;10.636;2023-11-19T12:36:18;0.95;;;0.40;;
37203;SDS011;23098;48.054;10.636;2023-11-19T12:38:44;0.88;;;0.30;;
37203;SDS011;23098;48.054;10.636;2023-11-19T12:41:11;0.20;;;0.20;;
37203;SDS011;23098;48.054;10.636;2023-11-19T12:43:38;0.50;;;0.40;;
37203;SDS011;23098;48.054;10.636;2023-11-19T12:46:16;0.30;;;0.30;;
37203;SDS011;23098;48.054;10.636;2023-11-19T12:48:46;0.75;;;0.40;;
37203;SDS011;23098;48.054;10.636;2023-11-19T12:51:15;0.43;;;0.40;;
37203;SDS011;23098;48.054;10.636;2023-11-19T12:53:51;0.20;;;0.20;;
37203;SDS011;23098;48.054;10.636;2023-11-19T12:56:22;0.20;;;0.20;;
37203;SDS011;23098;48.054;10.636;2023-11-19T12:58:48;0.65;;;0.60;;
37203;SDS011;23098;48.054;10.636;2023-11-19T13:01:15;0.25;;;0.25;;
37203;SDS011;23098;48.054;10.636;2023-11-19T13:03:43;0.30;;;0.30;;
37203;SDS011;23098;48.054;10.636;2023-11-19T13:06:09;0.30;;;0.30;;
37203;SDS011;23098;48.054;10.636;2023-11-19T13:08:42;0.98;;;0.20;;
37203;SDS011;23098;48.054;10.636;2023-11-19T13:11:09;0.65;;;0.20;;
37203;SDS011;23098;48.054;10.636;2023-11-19T13:13:53;0.30;;;0.30;;
37203;SDS011;23098;48.054;10.636;2023-11-19T13:16:23;0.35;;;0.30;;
37203;SDS011;23098;48.054;10.636;2023-11-19T13:18:49;0.60;;;0.40;;
37203;SDS011;23098;48.054;10.636;2023-11-19T13:21:15;0.63;;;0.60;;
37203;SDS011;23098;48.054;10.636;2023-11-19T13:23:41;1.38;;;0.40;;
37203;SDS011;23098;48.054;10.636;2023-11-19T13:26:07;0.43;;;0.30;;
37203;SDS011;23098;48.054;10.636;2023-11-19T13:28:33;3.28;;;0.63;;
37203;SDS011;23098;48.054;10.636;2023-11-19T13:30:58;0.30;;;0.30;;
37203;SDS011;23098;48.054;10.636;2023-11-19T13:33:24;0.47;;;0.47;;
37203;SDS011;23098;48.054;10.636;2023-11-19T13:35:49;0.32;;;0.20;;
37203;SDS011;23098;48.054;10.636;2023-11-19T13:38:15;0.20;;;0.20;;
37203;SDS011;23098;48.054;10.636;2023-11-19T13:40:40;0.15;;;0.15;;
37203;SDS011;23098;48.054;10.636;2023-11-19T13:43:06;0.60;;;0.35;;
37203;SDS011;23098;48.054;10.636;2023-11-19T13:45:32;0.38;;;0.30;;
37203;SDS011;23098;48.054;10.636;2023-11-19T13:47:58;0.30;;;0.30;;
37203;SDS011;23098;48.054;10.636;2023-11-19T13:50:23;1.10;;;0.40;;
37203;SDS011;23098;48.054;10.636;2023-11-19T13:52:49;0.55;;;0.35;;
37203;SDS011;23098;48.054;10.636;2023-11-19T13:55:14;0.20;;;0.10;;
37203;SDS011;23098;48.054;10.636;2023-11-19T13:57:40;0.60;;;0.30;;
37203;SDS011;23098;48.054;10.636;2023-11-19T14:00:07;0.40;;;0.20;;
37203;SDS011;23098;48.054;10.636;2023-11-19T14:02:41;0.30;;;0.30;;
37203;SDS011;23098;48.054;10.636;2023-11-19T14:05:21;0.30;;;0.30;;
37203;SDS011;23098;48.054;10.636;2023-11-19T14:07:48;0.45;;;0.45;;
37203;SDS011;23098;48.054;10.636;2023-11-19T14:10:14;0.40;;;0.40;;
37203;SDS011;23098;48.054;10.636;2023-11-19T14:12:40;0.75;;;0.43;;
37203;SDS011;23098;48.054;10.636;2023-11-19T14:15:07;1.58;;;0.40;;
37203;SDS011;23098;48.054;10.636;2023-11-19T14:17:42;0.57;;;0.32;;
37203;SDS011;23098;48.054;10.636;2023-11-19T14:20:08;1.13;;;0.50;;
37203;SDS011;23098;48.054;10.636;2023-11-19T14:22:44;0.88;;;0.30;;
37203;SDS011;23098;48.054;10.636;2023-11-19T14:25:13;0.35;;;0.30;;
37203;SDS011;23098;48.054;10.636;2023-11-19T14:27:40;0.85;;;0.40;;
37203;SDS011;23098;48.054;10.636;2023-11-19T14:30:08;0.60;;;0.40;;
37203;SDS011;23098;48.054;10.636;2023-11-19T14:32:41;0.30;;;0.30;;
37203;SDS011;23098;48.054;10.636;2023-11-19T14:35:08;0.52;;;0.52;;
37203;SDS011;23098;48.054;10.636;2023-11-19T14:37:35;0.82;;;0.70;;
37203;SDS011;23098;48.054;10.636;2023-11-19T14:40:00;0.63;;;0.40;;
37203;SDS011;23098;48.054;10.636;2023-11-19T14:42:29;1.30;;;0.82;;
37203;SDS011;23098;48.054;10.636;2023-11-19T14:44:54;1.20;;;0.73;;